createdAt,value
2022-10-08T04:31:05.453Z,0.00
2022-10-08T04:32:05.360Z,0.00
2022-10-08T04:33:05.347Z,0.00
2022-10-08T04:34:05.338Z,0.00
2022-10-08T04:35:05.329Z,0.00
2022-10-08T04:36:05.309Z,0.00
2022-10-08T04:37:05.289Z,0.00
2022-10-08T04:38:05.288Z,0.00
2022-10-08T04:39:05.269Z,0.00
2022-10-08T04:40:05.269Z,0.00
2022-10-08T04:41:05.258Z,0.00
2022-10-08T04:42:05.238Z,0.00
2022-10-08T04:43:05.237Z,0.00
2022-10-08T04:44:12.276Z,0.00
2022-10-08T04:45:05.209Z,0.00
2022-10-08T04:46:05.249Z,0.00
2022-10-08T04:47:05.165Z,0.00
2022-10-08T04:48:05.157Z,0.00
2022-10-08T04:49:05.136Z,0.00
2022-10-08T04:50:05.137Z,0.00
2022-10-08T04:51:10.010Z,0.00
2022-10-08T04:52:06.105Z,0.00
2022-10-08T04:53:05.085Z,0.00
2022-10-08T04:54:05.090Z,0.00
2022-10-08T04:55:05.075Z,0.00
2022-10-08T04:56:05.054Z,0.00
2022-10-08T04:57:05.035Z,0.00
2022-10-08T04:58:05.024Z,0.00
2022-10-08T04:59:05.014Z,0.00
2022-10-08T05:00:20.113Z,0.00
2022-10-08T05:01:05.986Z,0.00
2022-10-08T05:02:05.070Z,0.00
2022-10-08T05:03:05.024Z,0.00
2022-10-08T05:04:04.954Z,0.00
2022-10-08T05:05:04.943Z,0.00
2022-10-08T05:06:04.923Z,0.00
2022-10-08T05:07:04.903Z,0.00
2022-10-08T05:08:04.895Z,0.00
2022-10-08T05:09:04.873Z,0.00
2022-10-08T05:10:04.876Z,0.00
2022-10-08T05:11:04.853Z,0.00
2022-10-08T05:12:04.833Z,0.00
2022-10-08T05:13:04.822Z,0.00
2022-10-08T05:14:04.843Z,0.00
2022-10-08T05:15:04.811Z,0.00
2022-10-08T05:16:04.889Z,0.00
2022-10-08T05:17:04.773Z,0.00
2022-10-08T05:18:04.762Z,0.00
2022-10-08T05:19:04.743Z,0.00
2022-10-08T05:20:04.743Z,4.00
2022-10-08T05:21:04.720Z,0.00
2022-10-08T05:22:04.709Z,4.00
2022-10-08T05:23:04.692Z,4.00
2022-10-08T05:24:04.684Z,0.00
2022-10-08T05:25:04.680Z,4.00
2022-10-08T05:26:04.653Z,4.00
2022-10-08T05:27:04.631Z,8.00
2022-10-08T05:28:04.667Z,8.00
2022-10-08T05:29:04.612Z,8.00
2022-10-08T05:30:04.666Z,8.00
2022-10-08T05:31:04.625Z,8.00
2022-10-08T05:32:04.593Z,8.00
2022-10-08T05:33:04.561Z,12.00
2022-10-08T05:34:04.552Z,12.00
2022-10-08T05:35:04.532Z,16.00
2022-10-08T05:36:04.534Z,20.00
2022-10-08T05:37:04.514Z,24.00
2022-10-08T05:38:04.490Z,24.00
2022-10-08T05:39:04.481Z,28.00
2022-10-08T05:40:04.525Z,28.00
2022-10-08T05:41:04.474Z,28.00
2022-10-08T05:42:04.452Z,32.00
2022-10-08T05:43:04.430Z,40.00
2022-10-08T05:44:04.420Z,48.00
2022-10-08T05:45:04.411Z,52.00
2022-10-08T05:46:04.451Z,56.00
2022-10-08T05:47:04.385Z,52.00
2022-10-08T05:48:04.370Z,56.00
2022-10-08T05:49:04.358Z,60.00
2022-10-08T05:50:04.363Z,52.00
2022-10-08T05:51:04.320Z,52.00
2022-10-08T05:52:04.308Z,48.00
2022-10-08T05:53:08.587Z,48.00
2022-10-08T05:54:05.285Z,52.00
2022-10-08T05:55:04.280Z,52.00
2022-10-08T05:56:04.257Z,48.00
2022-10-08T05:57:04.248Z,52.00
2022-10-08T05:58:04.226Z,56.00
2022-10-08T05:59:04.219Z,56.00
2022-10-08T06:00:04.228Z,56.00
2022-10-08T06:01:04.198Z,60.00
2022-10-08T06:02:04.177Z,64.00
2022-10-08T06:03:04.239Z,76.00
2022-10-08T06:04:08.425Z,84.00
2022-10-08T06:05:05.248Z,100.00
2022-10-08T06:06:04.117Z,112.00
2022-10-08T06:07:04.098Z,92.00
2022-10-08T06:08:04.099Z,100.00
2022-10-08T06:09:04.079Z,100.00
2022-10-08T06:10:04.067Z,100.00
2022-10-08T06:11:04.070Z,100.00
2022-10-08T06:12:04.036Z,96.00
2022-10-08T06:13:04.027Z,112.00
2022-10-08T06:14:04.015Z,140.00
2022-10-08T06:15:04.018Z,156.00
2022-10-08T06:16:04.064Z,164.00
2022-10-08T06:17:03.977Z,152.00
2022-10-08T06:18:03.957Z,140.00
2022-10-08T06:19:03.961Z,144.00
2022-10-08T06:20:03.938Z,156.00
2022-10-08T06:21:03.935Z,168.00
2022-10-08T06:22:03.905Z,176.00
2022-10-08T06:23:03.896Z,204.00
2022-10-08T06:24:03.880Z,216.00
2022-10-08T06:25:03.867Z,252.00
2022-10-08T06:26:03.868Z,368.00
2022-10-08T06:27:03.845Z,452.00
2022-10-08T06:28:03.856Z,516.00
2022-10-08T06:29:03.825Z,488.00
2022-10-08T06:30:03.796Z,488.00
2022-10-08T06:31:03.831Z,484.00
2022-10-08T06:32:03.774Z,480.00
2022-10-08T06:33:03.766Z,540.00
2022-10-08T06:34:03.753Z,552.00
2022-10-08T06:35:03.754Z,584.00
2022-10-08T06:36:03.736Z,668.00
2022-10-08T06:37:03.715Z,712.00
2022-10-08T06:38:03.694Z,692.00
2022-10-08T06:39:03.685Z,700.00
2022-10-08T06:40:03.664Z,584.00
2022-10-08T06:41:03.673Z,384.00
2022-10-08T06:42:03.643Z,236.00
2022-10-08T06:43:03.633Z,228.00
2022-10-08T06:44:03.628Z,264.00
2022-10-08T06:45:03.612Z,256.00
2022-10-08T06:46:03.603Z,232.00
2022-10-08T06:47:03.654Z,260.00
2022-10-08T06:48:03.608Z,256.00
2022-10-08T06:49:03.571Z,260.00
2022-10-08T06:50:03.543Z,268.00
2022-10-08T06:51:03.574Z,288.00
2022-10-08T06:52:03.539Z,292.00
2022-10-08T06:53:03.528Z,272.00
2022-10-08T06:54:08.026Z,268.00
2022-10-08T06:55:04.486Z,336.00
2022-10-08T06:56:03.472Z,404.00
2022-10-08T06:57:03.462Z,548.00
2022-10-08T06:58:03.434Z,728.00
2022-10-08T06:59:03.430Z,816.00
2022-10-08T07:00:03.414Z,1028.00
2022-10-08T07:01:03.543Z,1192.00
2022-10-08T07:02:03.449Z,1324.00
2022-10-08T07:03:03.385Z,1040.00
2022-10-08T07:04:03.361Z,992.00
2022-10-08T07:05:03.352Z,936.00
2022-10-08T07:06:03.332Z,900.00
2022-10-08T07:07:03.332Z,1020.00
2022-10-08T07:08:03.314Z,1072.00
2022-10-08T07:09:03.301Z,1088.00
2022-10-08T07:10:03.280Z,1024.00
2022-10-08T07:11:03.271Z,1148.00
2022-10-08T07:12:03.270Z,976.00
2022-10-08T07:13:03.254Z,880.00
2022-10-08T07:14:03.251Z,736.00
2022-10-08T07:15:03.220Z,668.00
2022-10-08T07:16:03.280Z,564.00
2022-10-08T07:17:03.198Z,464.00
2022-10-08T07:18:03.179Z,456.00
2022-10-08T07:19:03.170Z,588.00
2022-10-08T07:20:03.153Z,888.00
2022-10-08T07:21:03.149Z,1188.00
2022-10-08T07:22:03.128Z,1332.00
2022-10-08T07:23:03.121Z,1268.00
2022-10-08T07:24:03.101Z,1084.00
2022-10-08T07:25:03.099Z,912.00
2022-10-08T07:26:03.088Z,804.00
2022-10-08T07:27:03.068Z,600.00
2022-10-08T07:28:03.124Z,408.00
2022-10-08T07:29:03.039Z,368.00
2022-10-08T07:30:03.037Z,392.00
2022-10-08T07:31:03.047Z,572.00
2022-10-08T07:32:03.001Z,768.00
2022-10-08T07:33:02.989Z,836.00
2022-10-08T07:34:02.969Z,820.00
2022-10-08T07:35:02.966Z,808.00
2022-10-08T07:36:03.039Z,776.00
2022-10-08T07:37:02.938Z,660.00
2022-10-08T07:38:02.919Z,632.00
2022-10-08T07:39:02.916Z,696.00
2022-10-08T07:40:02.906Z,968.00
2022-10-08T07:41:02.887Z,1248.00
2022-10-08T07:42:02.878Z,1144.00
2022-10-08T07:43:02.857Z,1588.00
2022-10-08T07:44:02.848Z,1820.00
2022-10-08T07:45:02.828Z,1804.00
2022-10-08T07:46:02.909Z,1856.00
2022-10-08T07:47:02.807Z,2096.00
2022-10-08T07:48:02.797Z,2444.00
2022-10-08T07:49:02.777Z,2440.00
2022-10-08T07:50:02.767Z,2576.00
2022-10-08T07:51:02.768Z,2904.00
2022-10-08T07:52:02.742Z,3048.00
2022-10-08T07:53:02.727Z,3560.00
2022-10-08T07:54:03.067Z,4316.00
2022-10-08T07:55:02.717Z,5124.00
2022-10-08T07:56:02.698Z,4740.00
2022-10-08T07:57:02.677Z,4088.00
2022-10-08T07:58:02.668Z,3752.00
2022-10-08T07:59:02.646Z,4008.00
2022-10-08T08:00:02.646Z,5008.00
2022-10-08T08:01:02.664Z,5720.00
2022-10-08T08:02:02.683Z,5708.00
2022-10-08T08:03:02.596Z,5232.00
2022-10-08T08:04:02.585Z,5260.00
2022-10-08T08:05:02.576Z,5756.00
2022-10-08T08:06:02.561Z,5968.00
2022-10-08T08:07:02.657Z,6328.00
2022-10-08T08:08:02.535Z,4872.00
2022-10-08T08:09:02.518Z,3852.00
2022-10-08T08:10:02.517Z,4000.00
2022-10-08T08:11:02.557Z,4784.00
2022-10-08T08:12:02.495Z,4524.00
2022-10-08T08:13:02.621Z,4264.00
2022-10-08T08:14:02.464Z,5056.00
2022-10-08T08:15:02.443Z,5564.00
2022-10-08T08:16:02.456Z,4896.00
2022-10-08T08:17:02.476Z,5576.00
2022-10-08T08:18:02.429Z,5172.00
2022-10-08T08:19:02.384Z,6472.00
2022-10-08T08:20:02.381Z,6404.00
2022-10-08T08:21:02.365Z,6436.00
2022-10-08T08:22:02.366Z,7564.00
2022-10-08T08:23:02.403Z,7312.00
2022-10-08T08:24:02.335Z,4584.00
2022-10-08T08:25:02.316Z,3200.00
2022-10-08T08:26:02.305Z,3092.00
2022-10-08T08:27:02.296Z,2776.00
2022-10-08T08:28:02.370Z,2400.00
2022-10-08T08:29:02.264Z,2896.00
2022-10-08T08:30:02.254Z,3068.00
2022-10-08T08:31:02.236Z,2820.00
2022-10-08T08:32:02.354Z,2968.00
2022-10-08T08:33:02.204Z,3292.00
2022-10-08T08:34:02.204Z,3840.00
2022-10-08T08:35:02.201Z,4652.00
2022-10-08T08:36:02.176Z,4708.00
2022-10-08T08:37:02.163Z,3592.00
2022-10-08T08:38:02.143Z,2832.00
2022-10-08T08:39:02.133Z,3324.00
2022-10-08T08:40:02.136Z,3268.00
2022-10-08T08:41:02.134Z,2716.00
2022-10-08T08:42:02.444Z,2408.00
2022-10-08T08:43:02.088Z,3008.00
2022-10-08T08:44:02.072Z,3916.00
2022-10-08T08:45:02.063Z,4232.00
2022-10-08T08:46:02.058Z,4040.00
2022-10-08T08:47:02.032Z,4020.00
2022-10-08T08:48:02.021Z,3688.00
2022-10-08T08:49:01.993Z,3116.00
2022-10-08T08:50:01.991Z,2756.00
2022-10-08T08:51:01.974Z,2952.00
2022-10-08T08:52:01.973Z,3028.00
2022-10-08T08:53:01.948Z,4148.00
2022-10-08T08:54:01.934Z,7416.00
2022-10-08T08:55:01.933Z,6296.00
2022-10-08T08:56:01.916Z,7100.00
2022-10-08T08:57:01.904Z,7400.00
2022-10-08T08:58:01.882Z,7004.00
2022-10-08T08:59:01.871Z,6516.00
2022-10-08T09:00:01.862Z,7368.00
2022-10-08T09:01:01.870Z,6876.00
2022-10-08T09:02:01.842Z,7140.00
2022-10-08T09:03:01.813Z,7092.00
2022-10-08T09:04:01.802Z,6024.00
2022-10-08T09:05:01.855Z,6840.00
2022-10-08T09:06:01.787Z,6828.00
2022-10-08T09:07:01.772Z,7100.00
2022-10-08T09:08:01.751Z,7344.00
2022-10-08T09:09:01.734Z,7400.00
2022-10-08T09:10:01.734Z,7632.00
2022-10-08T09:11:01.711Z,7380.00
2022-10-08T09:12:01.711Z,8048.00
2022-10-08T09:13:01.823Z,7560.00
2022-10-08T09:14:01.684Z,9180.00
2022-10-08T09:15:01.660Z,8852.00
2022-10-08T09:16:01.651Z,10148.00
2022-10-08T09:17:01.699Z,12272.00
2022-10-08T09:18:01.623Z,12736.00
2022-10-08T09:19:01.614Z,11192.00
2022-10-08T09:20:01.728Z,11116.00
2022-10-08T09:21:01.602Z,9848.00
2022-10-08T09:22:01.570Z,8196.00
2022-10-08T09:23:01.564Z,6692.00
2022-10-08T09:24:01.542Z,6408.00
2022-10-08T09:25:01.529Z,5432.00
2022-10-08T09:26:01.518Z,5980.00
2022-10-08T09:27:01.500Z,8052.00
2022-10-08T09:28:01.582Z,11740.00
2022-10-08T09:29:01.470Z,8300.00
2022-10-08T09:30:01.461Z,7872.00
2022-10-08T09:31:05.373Z,5156.00
2022-10-08T09:32:02.439Z,5632.00
2022-10-08T09:33:01.420Z,6540.00
2022-10-08T09:34:01.410Z,8276.00
2022-10-08T09:35:01.400Z,12380.00
2022-10-08T09:36:01.380Z,7676.00
2022-10-08T09:37:01.364Z,8432.00
2022-10-08T09:38:05.603Z,9596.00
2022-10-08T09:39:01.500Z,19264.00
2022-10-08T09:40:01.333Z,18624.00
2022-10-08T09:41:01.309Z,29184.00
2022-10-08T09:42:01.300Z,8408.00
2022-10-08T09:43:01.301Z,7192.00
2022-10-08T09:44:01.271Z,7232.00
2022-10-08T09:45:01.263Z,7456.00
2022-10-08T09:46:01.293Z,7716.00
2022-10-08T09:47:01.230Z,9672.00
2022-10-08T09:48:01.233Z,7480.00
2022-10-08T09:49:01.218Z,7344.00
2022-10-08T09:50:01.203Z,41920.00
2022-10-08T09:51:01.290Z,5644.00
2022-10-08T09:52:01.171Z,4440.00
2022-10-08T09:53:01.170Z,3780.00
2022-10-08T09:54:01.150Z,3632.00
2022-10-08T09:55:01.131Z,4148.00
2022-10-08T09:56:01.121Z,5596.00
2022-10-08T09:57:01.101Z,48032.00
2022-10-08T09:58:01.100Z,47104.00
2022-10-08T09:59:01.079Z,5768.00
2022-10-08T10:00:01.062Z,6516.00
2022-10-08T10:01:01.084Z,5060.00
2022-10-08T10:02:01.040Z,5364.00
2022-10-08T10:03:01.029Z,6408.00
2022-10-08T10:04:01.114Z,7920.00
2022-10-08T10:05:00.991Z,51360.00
2022-10-08T10:06:00.980Z,50912.00
2022-10-08T10:07:00.959Z,52832.00
2022-10-08T10:08:00.968Z,52352.00
2022-10-08T10:09:00.948Z,8208.00
2022-10-08T10:10:00.930Z,49568.00
2022-10-08T10:11:00.910Z,43328.00
2022-10-08T10:12:00.909Z,28192.00
2022-10-08T10:13:00.911Z,55296.00
2022-10-08T10:14:00.881Z,52544.00
2022-10-08T10:15:00.878Z,25952.00
2022-10-08T10:16:00.850Z,19968.00
2022-10-08T10:17:00.922Z,52544.00
2022-10-08T10:18:00.844Z,50208.00
2022-10-08T10:19:00.810Z,50304.00
2022-10-08T10:20:00.800Z,50784.00
2022-10-08T10:21:00.781Z,48256.00
2022-10-08T10:22:00.787Z,9220.00
2022-10-08T10:23:00.781Z,8148.00
2022-10-08T10:24:00.757Z,9652.00
2022-10-08T10:25:00.738Z,22720.00
2022-10-08T10:26:05.500Z,21184.00
2022-10-08T10:27:01.709Z,58400.00
2022-10-08T10:28:00.745Z,57856.00
2022-10-08T10:29:00.700Z,9452.00
2022-10-08T10:30:00.680Z,7800.00
2022-10-08T10:31:00.718Z,7768.00
2022-10-08T10:32:00.639Z,7040.00
2022-10-08T10:33:00.642Z,6980.00
2022-10-08T10:34:00.644Z,7040.00
2022-10-08T10:35:00.609Z,6444.00
2022-10-08T10:36:00.591Z,6284.00
2022-10-08T10:37:00.584Z,7312.00
2022-10-08T10:38:00.573Z,67392.00
2022-10-08T10:39:00.583Z,17408.00
2022-10-08T10:40:00.540Z,7780.00
2022-10-08T10:41:00.541Z,5840.00
2022-10-08T10:42:00.520Z,4888.00
2022-10-08T10:43:00.510Z,5360.00
2022-10-08T10:44:07.570Z,6708.00
2022-10-08T10:45:00.499Z,7660.00
2022-10-08T10:46:00.525Z,7228.00
2022-10-08T10:47:00.459Z,8004.00
2022-10-08T10:48:00.461Z,36000.00
2022-10-08T10:49:00.507Z,13396.00
2022-10-08T10:50:00.460Z,68832.00
2022-10-08T10:51:00.430Z,65824.00
2022-10-08T10:52:00.390Z,65056.00
2022-10-08T10:53:00.397Z,64992.00
2022-10-08T10:54:00.390Z,68160.00
2022-10-08T10:55:00.350Z,65856.00
2022-10-08T10:56:00.342Z,64160.00
2022-10-08T10:57:00.321Z,64896.00
2022-10-08T10:58:00.320Z,66336.00
2022-10-08T10:59:00.331Z,69728.00
2022-10-08T11:00:00.320Z,69856.00
2022-10-08T11:01:00.278Z,68320.00
2022-10-08T11:02:00.316Z,64736.00
2022-10-08T11:03:00.308Z,64064.00
2022-10-08T11:04:00.241Z,64128.00
2022-10-08T11:05:01.995Z,65536.00
2022-10-08T11:06:00.202Z,68128.00
2022-10-08T11:07:00.202Z,69504.00
2022-10-08T11:08:00.180Z,65504.00
2022-10-08T11:09:00.181Z,53728.00
2022-10-08T11:10:00.155Z,71296.00
2022-10-08T11:11:00.154Z,73120.00
2022-10-08T11:12:00.131Z,64736.00
2022-10-08T11:13:00.122Z,69440.00
2022-10-08T11:14:00.093Z,73920.00
2022-10-08T11:15:00.117Z,73440.00
2022-10-08T11:16:00.145Z,76096.00
2022-10-08T11:17:00.068Z,69568.00
2022-10-08T11:18:00.050Z,75168.00
2022-10-08T11:19:00.043Z,71136.00
2022-10-08T11:20:00.083Z,71392.00
2022-10-08T11:21:00.015Z,73952.00
2022-10-08T11:22:00.033Z,9384.00
2022-10-08T11:22:59.993Z,76736.00
2022-10-08T11:23:59.993Z,9416.00
2022-10-08T11:24:59.962Z,72704.00
2022-10-08T11:26:22.406Z,75040.00
2022-10-08T11:27:00.943Z,12512.00
2022-10-08T11:27:59.947Z,79008.00
2022-10-08T11:28:59.915Z,78048.00
2022-10-08T11:29:59.983Z,73248.00
2022-10-08T11:30:59.987Z,20480.00
2022-10-08T11:31:59.874Z,78112.00
2022-10-08T11:32:59.874Z,75840.00
2022-10-08T11:33:59.864Z,74656.00
2022-10-08T11:34:59.863Z,27488.00
2022-10-08T11:35:59.815Z,74944.00
2022-10-08T11:36:59.814Z,17632.00
2022-10-08T11:37:59.794Z,6684.00
2022-10-08T11:38:59.786Z,8020.00
2022-10-08T11:39:59.820Z,31456.00
2022-10-08T11:40:59.756Z,81728.00
2022-10-08T11:41:59.746Z,82208.00
2022-10-08T11:42:59.735Z,82368.00
2022-10-08T11:43:59.715Z,81888.00
2022-10-08T11:44:59.716Z,84736.00
2022-10-08T11:45:59.757Z,85536.00
2022-10-08T11:46:59.685Z,83936.00
2022-10-08T11:47:59.666Z,84864.00
2022-10-08T11:48:59.656Z,84960.00
2022-10-08T11:49:59.656Z,84672.00
2022-10-08T11:50:59.636Z,87648.00
2022-10-08T11:51:59.627Z,87776.00
2022-10-08T11:52:59.607Z,87520.00
2022-10-08T11:53:59.596Z,86720.00
2022-10-08T11:54:59.596Z,85760.00
2022-10-08T11:55:59.567Z,84480.00
2022-10-08T11:56:59.563Z,84768.00
2022-10-08T11:58:08.360Z,86688.00
2022-10-08T11:59:00.537Z,88576.00
2022-10-08T12:00:02.040Z,89088.00
2022-10-08T12:01:00.539Z,91232.00
2022-10-08T12:01:59.538Z,90592.00
2022-10-08T12:02:59.616Z,91072.00
2022-10-08T12:03:59.534Z,91264.00
2022-10-08T12:04:59.471Z,89248.00
2022-10-08T12:05:59.456Z,88896.00
2022-10-08T12:06:59.440Z,89888.00
2022-10-08T12:07:59.418Z,90560.00
2022-10-08T12:08:59.408Z,88288.00
2022-10-08T12:09:59.410Z,88256.00
2022-10-08T12:10:59.387Z,89024.00
2022-10-08T12:11:59.603Z,89952.00
2022-10-08T12:12:59.509Z,89856.00
2022-10-08T12:13:59.340Z,88096.00
2022-10-08T12:14:59.339Z,88992.00
2022-10-08T12:15:59.358Z,89728.00
2022-10-08T12:16:59.304Z,90048.00
2022-10-08T12:17:59.291Z,91168.00
2022-10-08T12:18:59.289Z,87040.00
2022-10-08T12:19:59.280Z,89984.00
2022-10-08T12:20:59.260Z,89248.00
2022-10-08T12:21:59.251Z,59392.00
2022-10-08T12:22:59.367Z,59168.00
2022-10-08T12:23:59.251Z,36960.00
2022-10-08T12:24:59.223Z,62304.00
2022-10-08T12:25:59.192Z,89728.00
2022-10-08T12:26:59.190Z,90048.00
2022-10-08T12:27:59.162Z,89056.00
2022-10-08T12:28:59.162Z,89632.00
2022-10-08T12:29:59.186Z,89536.00
2022-10-08T12:30:59.151Z,88032.00
2022-10-08T12:31:59.112Z,89504.00
2022-10-08T12:32:59.112Z,90112.00
2022-10-08T12:33:59.099Z,89184.00
2022-10-08T12:34:59.103Z,89440.00
2022-10-08T12:35:59.160Z,89760.00
2022-10-08T12:36:59.061Z,89088.00
2022-10-08T12:37:59.043Z,88224.00
2022-10-08T12:38:59.034Z,19424.00
2022-10-08T12:39:59.023Z,90112.00
2022-10-08T12:40:59.023Z,89632.00
2022-10-08T12:41:59.004Z,89568.00
2022-10-08T12:42:58.985Z,87168.00
2022-10-08T12:43:58.967Z,85344.00
2022-10-08T12:44:58.986Z,86624.00
2022-10-08T12:45:58.972Z,75712.00
2022-10-08T12:46:58.980Z,12816.00
2022-10-08T12:47:58.924Z,27168.00
2022-10-08T12:48:58.928Z,88448.00
2022-10-08T12:49:58.895Z,7976.00
2022-10-08T12:50:58.896Z,10976.00
2022-10-08T12:51:58.875Z,68224.00
2022-10-08T12:52:58.885Z,13064.00
2022-10-08T12:53:58.847Z,12064.00
2022-10-08T12:54:58.836Z,6780.00
2022-10-08T12:55:58.977Z,5376.00
2022-10-08T12:56:58.806Z,4564.00
2022-10-08T12:57:58.797Z,4056.00
2022-10-08T12:58:58.796Z,3972.00
2022-10-08T12:59:58.766Z,6736.00
2022-10-08T13:00:58.867Z,4620.00
2022-10-08T13:01:58.784Z,4936.00
2022-10-08T13:02:58.746Z,5136.00
2022-10-08T13:03:58.726Z,6696.00
2022-10-08T13:04:58.706Z,7248.00
2022-10-08T13:05:58.718Z,10140.00
2022-10-08T13:06:58.687Z,17376.00
2022-10-08T13:07:58.686Z,14384.00
2022-10-08T13:08:58.658Z,9384.00
2022-10-08T13:09:58.667Z,10480.00
2022-10-08T13:10:58.648Z,97888.00
2022-10-08T13:12:03.234Z,95776.00
2022-10-08T13:12:59.607Z,96224.00
2022-10-08T13:13:58.587Z,95104.00
2022-10-08T13:14:58.577Z,92000.00
2022-10-08T13:15:58.606Z,83648.00
2022-10-08T13:16:58.559Z,74432.00
2022-10-08T13:17:58.566Z,84960.00
2022-10-08T13:18:58.590Z,85568.00
2022-10-08T13:19:58.550Z,92288.00
2022-10-08T13:20:58.513Z,56832.00
2022-10-08T13:21:58.508Z,95904.00
2022-10-08T13:22:58.496Z,87008.00
2022-10-08T13:23:58.467Z,25312.00
2022-10-08T13:24:58.472Z,11304.00
2022-10-08T13:25:58.449Z,9096.00
2022-10-08T13:26:58.449Z,8064.00
2022-10-08T13:27:58.497Z,8560.00
2022-10-08T13:29:00.457Z,10896.00
2022-10-08T13:29:58.389Z,11148.00
2022-10-08T13:30:58.456Z,11948.00
2022-10-08T13:31:58.441Z,10660.00
2022-10-08T13:32:58.399Z,9752.00
2022-10-08T13:33:58.337Z,8924.00
2022-10-08T13:34:58.331Z,8240.00
2022-10-08T13:35:58.373Z,8176.00
2022-10-08T13:36:58.340Z,8392.00
2022-10-08T13:37:58.290Z,8784.00
2022-10-08T13:38:58.280Z,9296.00
2022-10-08T13:39:58.259Z,9760.00
2022-10-08T13:40:58.273Z,10380.00
2022-10-08T13:41:58.337Z,10436.00
2022-10-08T13:42:58.232Z,10220.00
2022-10-08T13:43:58.211Z,10804.00
2022-10-08T13:44:58.214Z,11132.00
2022-10-08T13:45:58.192Z,10904.00
2022-10-08T13:47:03.307Z,10616.00
2022-10-08T13:47:59.178Z,10856.00
2022-10-08T13:48:58.158Z,12312.00
2022-10-08T13:49:58.131Z,13692.00
2022-10-08T13:50:58.120Z,13456.00
2022-10-08T13:51:58.120Z,11784.00
2022-10-08T13:52:58.093Z,10200.00
2022-10-08T13:53:58.089Z,10444.00
2022-10-08T13:54:58.090Z,9220.00
2022-10-08T13:55:58.060Z,6628.00
2022-10-08T13:56:58.111Z,5004.00
2022-10-08T13:57:58.030Z,4116.00
2022-10-08T13:58:58.020Z,3396.00
2022-10-08T13:59:58.001Z,2896.00
2022-10-08T14:00:58.037Z,2484.00
2022-10-08T14:01:58.100Z,1988.00
2022-10-08T14:02:57.970Z,1668.00
2022-10-08T14:03:57.964Z,1468.00
2022-10-08T14:04:57.941Z,1452.00
2022-10-08T14:05:57.931Z,1580.00
2022-10-08T14:06:57.924Z,1772.00
2022-10-08T14:07:57.904Z,1844.00
2022-10-08T14:08:57.890Z,1896.00
2022-10-08T14:09:57.880Z,1836.00
2022-10-08T14:10:57.870Z,1768.00
2022-10-08T14:11:57.862Z,1756.00
2022-10-08T14:12:57.839Z,1816.00
2022-10-08T14:13:57.839Z,1928.00
2022-10-08T14:14:57.818Z,2036.00
2022-10-08T14:15:57.906Z,2092.00
2022-10-08T14:16:57.798Z,2152.00
2022-10-08T14:17:57.779Z,2280.00
2022-10-08T14:18:59.326Z,2452.00
2022-10-08T14:19:57.750Z,2560.00
2022-10-08T14:20:57.730Z,2544.00
2022-10-08T14:21:57.739Z,2504.00
2022-10-08T14:22:57.709Z,2524.00
2022-10-08T14:23:57.730Z,2544.00
2022-10-08T14:24:57.679Z,2492.00
2022-10-08T14:25:57.680Z,2328.00
2022-10-08T14:26:57.660Z,2116.00
2022-10-08T14:27:57.639Z,1920.00
2022-10-08T14:28:57.637Z,1788.00
2022-10-08T14:29:57.619Z,1720.00
2022-10-08T14:30:57.613Z,1744.00
2022-10-08T14:31:57.663Z,1828.00
2022-10-08T14:32:57.576Z,1964.00
2022-10-08T14:33:57.579Z,2152.00
2022-10-08T14:34:57.589Z,2440.00
2022-10-08T14:35:57.544Z,2732.00
2022-10-08T14:36:57.559Z,3096.00
2022-10-08T14:37:57.509Z,3656.00
2022-10-08T14:38:57.499Z,4488.00
2022-10-08T14:39:57.487Z,6088.00
2022-10-08T14:40:57.477Z,7636.00
2022-10-08T14:41:57.458Z,7980.00
2022-10-08T14:42:57.458Z,7584.00
2022-10-08T14:43:57.438Z,7124.00
2022-10-08T14:44:57.428Z,6504.00
2022-10-08T14:45:57.474Z,5980.00
2022-10-08T14:46:57.399Z,5676.00
2022-10-08T14:47:57.396Z,5472.00
2022-10-08T14:48:57.376Z,5360.00
2022-10-08T14:49:57.460Z,5300.00
2022-10-08T14:50:57.350Z,5248.00
2022-10-08T14:51:57.327Z,5248.00
2022-10-08T14:52:57.537Z,5260.00
2022-10-08T14:53:57.337Z,5248.00
2022-10-08T14:54:57.297Z,5220.00
2022-10-08T14:56:11.476Z,5168.00
2022-10-08T14:56:58.266Z,5132.00
2022-10-08T14:57:57.287Z,5068.00
2022-10-08T14:58:57.278Z,4980.00
2022-10-08T14:59:57.235Z,4808.00
2022-10-08T15:00:57.217Z,4352.00
2022-10-08T15:01:57.245Z,3916.00
2022-10-08T15:02:57.205Z,3484.00
2022-10-08T15:03:57.216Z,3180.00
2022-10-08T15:04:57.166Z,2908.00
2022-10-08T15:05:57.148Z,2732.00
2022-10-08T15:06:57.148Z,2624.00
2022-10-08T15:07:57.127Z,2568.00
2022-10-08T15:08:57.114Z,2500.00
2022-10-08T15:09:57.096Z,2380.00
2022-10-08T15:10:57.092Z,2208.00
2022-10-08T15:11:57.076Z,2040.00
2022-10-08T15:12:57.086Z,1996.00
2022-10-08T15:13:57.049Z,1996.00
2022-10-08T15:14:57.045Z,2036.00
2022-10-08T15:15:57.016Z,2128.00
2022-10-08T15:16:57.008Z,2244.00
2022-10-08T15:17:57.016Z,2356.00
2022-10-08T15:18:56.991Z,2336.00
2022-10-08T15:19:56.987Z,2324.00
2022-10-08T15:20:56.968Z,2280.00
2022-10-08T15:21:56.947Z,2240.00
2022-10-08T15:22:56.944Z,2284.00
2022-10-08T15:23:56.932Z,2292.00
2022-10-08T15:24:56.905Z,2204.00
2022-10-08T15:25:56.908Z,2012.00
2022-10-08T15:26:56.888Z,1748.00
2022-10-08T15:27:56.887Z,1532.00
2022-10-08T15:28:56.865Z,1416.00
2022-10-08T15:29:56.865Z,1316.00
2022-10-08T15:30:56.834Z,1200.00
2022-10-08T15:31:56.927Z,1076.00
2022-10-08T15:32:56.816Z,1012.00
2022-10-08T15:33:56.826Z,996.00
2022-10-08T15:34:56.775Z,1012.00
2022-10-08T15:35:56.799Z,1016.00
2022-10-08T15:36:56.768Z,1024.00
2022-10-08T15:37:56.755Z,1084.00
2022-10-08T15:38:56.724Z,1192.00
2022-10-08T15:39:56.711Z,1452.00
2022-10-08T15:40:56.715Z,1984.00
2022-10-08T15:41:56.703Z,3240.00
2022-10-08T15:42:56.705Z,22240.00
2022-10-08T15:43:56.675Z,8808.00
2022-10-08T15:44:56.674Z,5620.00
2022-10-08T15:45:56.671Z,31264.00
2022-10-08T15:46:59.325Z,8956.00
2022-10-08T15:47:56.614Z,5792.00
2022-10-08T15:48:56.645Z,26912.00
2022-10-08T15:49:56.595Z,35168.00
2022-10-08T15:50:56.597Z,20864.00
2022-10-08T15:51:56.560Z,33568.00
2022-10-08T15:52:56.542Z,31744.00
2022-10-08T15:53:56.633Z,32192.00
2022-10-08T15:54:56.554Z,31520.00
2022-10-08T15:55:56.514Z,30752.00
2022-10-08T15:56:56.526Z,30592.00
2022-10-08T15:57:56.486Z,29408.00
2022-10-08T15:58:56.484Z,19584.00
2022-10-08T15:59:56.480Z,7900.00
2022-10-08T16:00:56.465Z,5284.00
2022-10-08T16:01:56.486Z,4880.00
2022-10-08T16:02:56.487Z,4616.00
2022-10-08T16:03:56.544Z,4424.00
2022-10-08T16:04:56.415Z,4252.00
2022-10-08T16:05:56.374Z,4084.00
2022-10-08T16:06:56.424Z,3932.00
2022-10-08T16:07:56.348Z,3768.00
2022-10-08T16:08:56.375Z,3632.00
2022-10-08T16:09:56.334Z,3468.00
2022-10-08T16:10:58.254Z,3320.00
2022-10-08T16:11:56.346Z,3168.00
2022-10-08T16:12:56.285Z,3008.00
2022-10-08T16:13:56.335Z,2784.00
2022-10-08T16:14:56.274Z,2548.00
2022-10-08T16:15:56.259Z,2280.00
2022-10-08T16:16:56.314Z,2064.00
2022-10-08T16:17:56.225Z,1940.00
2022-10-08T16:18:56.279Z,1864.00
2022-10-08T16:19:56.205Z,1784.00
2022-10-08T16:20:56.178Z,1692.00
2022-10-08T16:21:56.186Z,1604.00
2022-10-08T16:22:56.173Z,1496.00
2022-10-08T16:23:56.194Z,1408.00
2022-10-08T16:24:56.197Z,1332.00
2022-10-08T16:25:56.145Z,1260.00
2022-10-08T16:26:56.105Z,1196.00
2022-10-08T16:27:56.095Z,1144.00
2022-10-08T16:28:56.116Z,1096.00
2022-10-08T16:29:56.065Z,1044.00
2022-10-08T16:30:56.105Z,1000.00
2022-10-08T16:31:56.056Z,968.00
2022-10-08T16:32:56.025Z,928.00
2022-10-08T16:33:56.024Z,896.00
2022-10-08T16:34:56.037Z,856.00
2022-10-08T16:35:55.982Z,816.00
2022-10-08T16:36:55.976Z,768.00
2022-10-08T16:37:55.984Z,724.00
2022-10-08T16:38:55.957Z,680.00
2022-10-08T16:39:55.946Z,644.00
2022-10-08T16:40:55.922Z,608.00